createdAt,value
2018-09-29T00:00:39.714Z,99.99
2018-09-29T00:01:39.861Z,99.07
2018-09-29T00:02:40.037Z,96.36
2018-09-29T00:03:40.183Z,94.37
2018-09-29T00:04:40.355Z,91.14
2018-09-29T00:05:41.499Z,89.29
2018-09-29T00:06:40.659Z,88.81
2018-09-29T00:07:40.821Z,88.34
2018-09-29T00:08:40.991Z,84.83
2018-09-29T00:09:41.139Z,84.17
2018-09-29T00:10:41.306Z,82.84
2018-09-29T00:13:13.928Z,83.22
2018-09-29T00:14:13.957Z,84.07
2018-09-29T00:15:14.192Z,82.65
2018-09-29T00:16:22.050Z,81.32
2018-09-29T00:17:14.525Z,79.80
2018-09-29T00:18:14.683Z,79.14
2018-09-29T00:19:14.843Z,79.33
2018-09-29T00:20:15.009Z,79.42
2018-09-29T00:21:15.174Z,78.95
2018-09-29T00:22:15.343Z,79.42
2018-09-29T00:23:15.506Z,78.56
2018-09-29T00:24:15.659Z,79.33
2018-09-29T00:25:15.827Z,79.94
2018-09-29T00:26:15.985Z,81.65
2018-09-29T00:28:58.244Z,84.01
2018-09-29T00:29:58.407Z,85.06
2018-09-29T00:30:58.569Z,86.30
2018-09-29T00:31:58.731Z,87.62
2018-09-29T00:32:58.936Z,88.76
2018-09-29T00:33:59.055Z,90.80
2018-09-29T00:34:59.217Z,91.56
2018-09-29T00:35:59.372Z,91.28
2018-09-29T00:36:59.538Z,91.56
2018-09-29T00:37:59.699Z,93.37
2018-09-29T00:38:59.855Z,94.89
2018-09-29T00:40:00.021Z,96.41
2018-09-29T00:41:00.177Z,97.07
2018-09-29T00:42:00.337Z,97.64
2018-09-29T00:43:00.501Z,99.99
2018-09-29T00:45:42.761Z,99.99
2018-09-29T00:46:42.917Z,99.99
2018-09-29T00:47:43.095Z,99.99
2018-09-29T00:48:43.253Z,99.99
2018-09-29T00:49:43.418Z,99.99
2018-09-29T00:50:43.579Z,99.99
2018-09-29T00:51:43.749Z,99.99
2018-09-29T00:52:43.900Z,99.99
2018-09-29T00:53:44.067Z,99.99
2018-09-29T00:54:44.231Z,99.99
2018-09-29T00:57:26.500Z,99.99
2018-09-29T00:58:26.659Z,99.99
2018-09-29T00:59:26.821Z,99.99
2018-09-29T01:00:34.654Z,99.99
2018-09-29T01:01:27.187Z,99.99
2018-09-29T01:02:27.349Z,99.99
2018-09-29T01:03:27.513Z,99.99
2018-09-29T01:04:27.677Z,99.99
2018-09-29T01:05:27.834Z,99.99
2018-09-29T01:06:27.999Z,99.99
2018-09-29T01:07:28.159Z,99.99
2018-09-29T01:08:28.321Z,99.99
2018-09-29T01:09:28.500Z,99.99
2018-09-29T01:10:28.638Z,99.77
2018-09-29T01:11:28.807Z,99.21
2018-09-29T01:12:28.967Z,99.49
2018-09-29T01:13:30.041Z,98.83
2018-09-29T01:14:29.330Z,99.02
2018-09-29T01:17:01.610Z,99.68
2018-09-29T01:18:01.770Z,99.99
2018-09-29T01:19:01.936Z,99.99
2018-09-29T01:20:02.095Z,99.99
2018-09-29T01:21:02.258Z,99.99
2018-09-29T01:22:02.415Z,99.99
2018-09-29T01:23:02.577Z,99.99
2018-09-29T01:24:02.756Z,99.99
2018-09-29T01:25:02.918Z,99.99
2018-09-29T01:26:03.074Z,99.99
2018-09-29T01:27:03.240Z,99.99
2018-09-29T01:28:03.397Z,99.99
2018-09-29T01:29:03.557Z,99.99
2018-09-29T01:30:03.725Z,99.99
2018-09-29T01:31:03.872Z,99.99
2018-09-29T01:33:36.432Z,99.99
2018-09-29T01:34:36.596Z,99.99
2018-09-29T01:35:36.757Z,99.99
2018-09-29T01:36:36.922Z,99.99
2018-09-29T01:37:37.087Z,99.99
2018-09-29T01:38:37.249Z,99.44
2018-09-29T01:39:37.408Z,99.26
2018-09-29T01:40:37.568Z,96.50
2018-09-29T01:41:37.734Z,96.12
2018-09-29T01:42:37.889Z,95.07
2018-09-29T01:43:38.050Z,94.60
2018-09-29T01:44:38.217Z,94.70
2018-09-29T01:45:38.362Z,94.89
2018-09-29T01:46:38.528Z,94.03
2018-09-29T01:47:38.694Z,94.23
2018-09-29T01:51:49.569Z,92.99
2018-09-29T01:52:49.356Z,93.04
2018-09-29T01:53:49.511Z,96.22
2018-09-29T01:54:49.677Z,96.12
2018-09-29T01:55:49.845Z,94.79
2018-09-29T01:56:49.998Z,94.98
2018-09-29T01:57:50.165Z,96.08
2018-09-29T01:58:50.320Z,98.45
2018-09-29T01:59:50.471Z,99.49
2018-09-29T02:00:50.634Z,99.99
2018-09-29T02:03:33.189Z,99.99
2018-09-29T02:04:33.351Z,99.99
2018-09-29T02:05:33.494Z,99.99
2018-09-29T02:06:33.665Z,99.99
2018-09-29T02:07:35.415Z,99.99
2018-09-29T02:08:33.989Z,99.99
2018-09-29T02:09:36.915Z,99.99
2018-09-29T02:10:34.320Z,99.99
2018-09-29T02:11:34.489Z,99.99
2018-09-29T02:12:34.640Z,99.99
2018-09-29T02:13:34.824Z,99.99
2018-09-29T02:14:34.967Z,99.99
2018-09-29T02:15:35.134Z,99.99
2018-09-29T02:16:35.292Z,99.99
2018-09-29T02:17:35.454Z,99.99
2018-09-29T02:23:16.049Z,99.99
2018-09-29T02:24:16.202Z,99.99
2018-09-29T02:25:16.349Z,99.99
2018-09-29T02:26:16.517Z,99.99
2018-09-29T02:27:16.683Z,99.99
2018-09-29T02:28:16.854Z,99.99
2018-09-29T02:29:17.013Z,99.99
2018-09-29T02:30:17.171Z,99.99
2018-09-29T02:31:17.336Z,99.54
2018-09-29T02:32:17.496Z,98.02
2018-09-29T02:35:00.059Z,94.27
2018-09-29T02:36:00.212Z,93.61
2018-09-29T02:37:00.449Z,92.90
2018-09-29T02:38:00.542Z,93.04
2018-09-29T02:39:00.709Z,92.80
2018-09-29T02:40:00.865Z,93.18
2018-09-29T02:41:01.023Z,93.94
2018-09-29T02:42:01.215Z,94.32
2018-09-29T02:43:01.350Z,95.46
2018-09-29T02:44:01.507Z,96.97
2018-09-29T02:46:44.048Z,99.99
2018-09-29T02:47:44.192Z,99.99
2018-09-29T02:48:44.357Z,99.99
2018-09-29T02:49:44.499Z,99.99
2018-09-29T02:50:44.690Z,99.99
2018-09-29T02:51:44.824Z,99.99
2018-09-29T02:52:44.986Z,99.99
2018-09-29T02:53:45.149Z,99.99
2018-09-29T02:54:45.321Z,99.99
2018-09-29T02:55:45.482Z,99.99
2018-09-29T02:58:18.256Z,99.99
2018-09-29T02:59:19.769Z,99.99
2018-09-29T03:00:18.052Z,99.99
2018-09-29T03:01:18.212Z,99.99
2018-09-29T03:02:18.371Z,99.99
2018-09-29T03:03:20.269Z,99.99
2018-09-29T03:04:18.678Z,99.99
2018-09-29T03:05:18.840Z,99.99
2018-09-29T03:06:19.002Z,99.99
2018-09-29T03:07:19.175Z,99.99
2018-09-29T03:08:19.352Z,99.99
2018-09-29T03:09:19.476Z,99.99
2018-09-29T03:10:20.271Z,99.99
2018-09-29T03:11:19.801Z,99.99
2018-09-29T03:12:19.962Z,99.99
2018-09-29T03:14:52.226Z,99.99
2018-09-29T03:15:52.393Z,99.99
2018-09-29T03:16:52.560Z,99.99
2018-09-29T03:17:52.715Z,99.99
2018-09-29T03:18:52.877Z,99.99
2018-09-29T03:19:53.044Z,99.99
2018-09-29T03:20:53.205Z,99.99
2018-09-29T03:21:53.366Z,99.99
2018-09-29T03:24:25.143Z,99.99
2018-09-29T03:25:25.310Z,99.99
2018-09-29T03:26:25.467Z,99.99
2018-09-29T03:27:25.621Z,99.99
2018-09-29T03:28:25.786Z,99.99
2018-09-29T03:29:25.941Z,99.99
2018-09-29T03:30:26.109Z,99.99
2018-09-29T03:31:26.306Z,99.99
2018-09-29T03:32:26.441Z,99.99
2018-09-29T03:33:26.594Z,99.99
2018-09-29T03:34:26.752Z,99.99
2018-09-29T03:35:26.911Z,99.99
2018-09-29T03:36:27.072Z,99.99
2018-09-29T03:37:27.227Z,99.99
2018-09-29T03:38:27.402Z,99.99
2018-09-29T03:41:09.649Z,99.99
2018-09-29T03:42:09.809Z,99.99
2018-09-29T03:43:09.977Z,99.99
2018-09-29T03:44:10.140Z,99.99
2018-09-29T03:45:10.296Z,99.99
2018-09-29T03:46:10.460Z,99.99
2018-09-29T03:47:10.618Z,99.99
2018-09-29T03:48:10.772Z,99.99
2018-09-29T03:49:10.935Z,99.99
2018-09-29T03:50:11.091Z,99.99
2018-09-29T03:51:11.265Z,99.99
2018-09-29T03:52:11.409Z,99.99
2018-09-29T03:53:11.572Z,99.99
2018-09-29T03:54:11.738Z,99.99
2018-09-29T03:55:11.893Z,99.99
2018-09-29T04:00:12.469Z,99.99
2018-09-29T04:01:13.357Z,99.99
2018-09-29T04:02:12.770Z,99.99
2018-09-29T04:03:13.249Z,99.99
2018-09-29T04:04:13.052Z,99.99
2018-09-29T04:05:13.232Z,99.99
2018-09-29T04:06:13.580Z,99.99
2018-09-29T04:07:13.596Z,99.99
2018-09-29T04:08:13.761Z,99.99
2018-09-29T04:09:13.917Z,99.99
2018-09-29T04:10:14.858Z,99.99
2018-09-29T04:11:14.274Z,99.99
2018-09-29T04:12:14.427Z,99.99
2018-09-29T04:13:14.586Z,99.99
2018-09-29T04:14:14.749Z,99.99
2018-09-29T04:16:57.013Z,99.99
2018-09-29T04:17:57.172Z,99.99
2018-09-29T04:18:57.336Z,99.99
2018-09-29T04:19:57.495Z,99.99
2018-09-29T04:20:57.652Z,99.99
2018-09-29T04:21:57.811Z,99.99
2018-09-29T04:22:57.973Z,99.99
2018-09-29T04:23:58.136Z,99.99
2018-09-29T04:24:58.304Z,99.99
2018-09-29T04:25:58.461Z,99.99
2018-09-29T04:28:40.847Z,99.99
2018-09-29T04:29:41.009Z,99.99
2018-09-29T04:30:41.169Z,99.99
2018-09-29T04:31:41.341Z,99.99
2018-09-29T04:32:41.506Z,99.99
2018-09-29T04:33:41.684Z,99.99
2018-09-29T04:34:41.829Z,99.99
2018-09-29T04:35:41.990Z,99.99
2018-09-29T04:36:42.136Z,99.99
2018-09-29T04:37:42.308Z,99.99
2018-09-29T04:38:42.465Z,99.99
2018-09-29T04:39:42.634Z,99.99
2018-09-29T04:40:42.786Z,99.99
2018-09-29T04:41:42.957Z,99.99
2018-09-29T04:42:43.754Z,99.99
2018-09-29T04:43:51.266Z,99.99
2018-09-29T04:44:43.394Z,99.99
2018-09-29T04:45:43.558Z,99.99
2018-09-29T04:46:43.717Z,99.99
2018-09-29T04:47:43.885Z,99.99
2018-09-29T04:48:44.052Z,99.99
2018-09-29T04:49:44.198Z,99.99
2018-09-29T04:50:44.353Z,99.99
2018-09-29T04:51:44.521Z,99.99
2018-09-29T04:52:44.677Z,99.99
2018-09-29T04:53:44.839Z,99.99
2018-09-29T04:56:28.102Z,99.99
2018-09-29T04:57:28.262Z,99.99
2018-09-29T04:58:28.425Z,99.99
2018-09-29T04:59:29.127Z,99.99
2018-09-29T05:00:29.075Z,99.99
2018-09-29T05:01:28.967Z,99.99
2018-09-29T05:02:29.132Z,99.99
2018-09-29T05:03:29.281Z,99.99
2018-09-29T05:04:29.442Z,99.99
2018-09-29T05:05:29.604Z,99.99
2018-09-29T05:08:11.843Z,99.99
2018-09-29T05:09:12.011Z,99.99
2018-09-29T05:10:12.171Z,99.99
2018-09-29T05:11:12.330Z,99.99
2018-09-29T05:12:12.497Z,99.99
2018-09-29T05:13:12.656Z,99.99
2018-09-29T05:14:12.814Z,99.99
2018-09-29T05:15:20.415Z,99.99
2018-09-29T05:16:13.071Z,99.99
2018-09-29T05:17:13.227Z,99.99
2018-09-29T05:18:13.386Z,99.99
2018-09-29T05:19:13.532Z,99.99
2018-09-29T05:20:13.713Z,99.99
2018-09-29T05:21:15.402Z,99.99
2018-09-29T05:22:16.901Z,99.99
2018-09-29T05:23:14.196Z,99.99
2018-09-29T05:24:14.362Z,99.99
2018-09-29T05:25:14.504Z,99.99
2018-09-29T05:27:54.820Z,99.99
2018-09-29T05:28:46.878Z,99.99
2018-09-29T05:29:47.054Z,99.99
2018-09-29T05:30:47.270Z,99.99
2018-09-29T05:31:47.379Z,99.99
2018-09-29T05:32:47.541Z,99.99
2018-09-29T05:33:47.706Z,99.99
2018-09-29T05:34:47.870Z,99.99
2018-09-29T05:35:48.027Z,99.99
2018-09-29T05:36:48.183Z,99.99
2018-09-29T05:37:50.235Z,99.99
2018-09-29T05:38:48.476Z,99.99
2018-09-29T05:39:48.634Z,99.99
2018-09-29T05:40:48.796Z,99.99
2018-09-29T05:41:48.957Z,99.99
2018-09-29T05:42:49.119Z,99.99
2018-09-29T05:53:09.784Z,99.99
2018-09-29T05:54:09.952Z,99.99
2018-09-29T05:55:10.110Z,99.99
2018-09-29T05:56:10.274Z,99.99
2018-09-29T05:57:10.435Z,99.99
2018-09-29T05:58:10.594Z,99.99
2018-09-29T05:59:10.759Z,99.99
2018-09-29T06:00:10.939Z,99.99
2018-09-29T06:01:11.073Z,99.99
2018-09-29T06:02:11.250Z,99.99
2018-09-29T06:03:11.412Z,99.99
2018-09-29T06:04:11.580Z,99.99
2018-09-29T06:05:11.744Z,99.99
2018-09-29T06:06:11.920Z,99.99
2018-09-29T06:07:12.131Z,99.99
2018-09-29T06:10:08.874Z,99.99
2018-09-29T06:11:08.917Z,99.99
2018-09-29T06:12:09.079Z,99.99
2018-09-29T06:13:09.297Z,99.99
2018-09-29T06:14:09.402Z,99.99
2018-09-29T06:15:09.563Z,99.99
2018-09-29T06:16:09.719Z,99.99
2018-09-29T06:17:10.849Z,99.99
2018-09-29T06:18:10.019Z,99.99
2018-09-29T06:19:10.195Z,99.99
2018-09-29T06:20:10.348Z,99.99
2018-09-29T06:21:10.509Z,99.99
2018-09-29T06:22:10.670Z,98.54
2018-09-29T06:23:10.831Z,93.94
2018-09-29T06:24:10.998Z,92.23
2018-09-29T06:26:43.252Z,89.63
2018-09-29T06:27:43.412Z,90.48
2018-09-29T06:28:43.572Z,90.67
2018-09-29T06:29:43.733Z,90.10
2018-09-29T06:30:43.913Z,90.29
2018-09-29T06:31:44.067Z,90.24
2018-09-29T06:32:44.258Z,89.82
2018-09-29T06:33:44.445Z,89.63
2018-09-29T06:34:44.608Z,88.87
2018-09-29T06:35:44.777Z,89.29
2018-09-29T06:38:27.301Z,88.40
2018-09-29T06:39:27.545Z,87.35
2018-09-29T06:40:27.583Z,88.44
2018-09-29T06:41:27.733Z,89.06
2018-09-29T06:42:27.897Z,87.64
2018-09-29T06:43:28.062Z,87.68
2018-09-29T06:44:28.230Z,88.87
2018-09-29T06:45:28.395Z,87.54
2018-09-29T06:46:28.560Z,87.26
2018-09-29T06:47:28.719Z,86.31
2018-09-29T06:48:28.873Z,84.23
2018-09-29T06:49:29.034Z,83.85
2018-09-29T06:50:29.198Z,82.81
2018-09-29T06:51:29.358Z,82.52
2018-09-29T06:52:29.514Z,82.14
2018-09-29T06:55:11.767Z,80.91
2018-09-29T06:56:11.930Z,81.29
2018-09-29T06:57:12.096Z,81.01
2018-09-29T06:58:12.255Z,81.95
2018-09-29T06:59:12.430Z,82.62
2018-09-29T07:00:12.592Z,83.98
2018-09-29T07:01:12.754Z,85.31
2018-09-29T07:02:12.921Z,84.74
2018-09-29T07:03:13.089Z,83.47
2018-09-29T07:04:13.248Z,83.09
2018-09-29T07:05:13.403Z,82.28
2018-09-29T07:06:13.569Z,84.74
2018-09-29T07:07:13.730Z,87.21
2018-09-29T07:08:13.894Z,85.17
2018-09-29T07:09:14.056Z,83.37
2018-09-29T07:11:56.312Z,80.15
2018-09-29T07:12:56.485Z,81.67
2018-09-29T07:13:56.630Z,82.37
2018-09-29T07:14:56.789Z,82.85
2018-09-29T07:15:56.947Z,84.08
2018-09-29T07:16:58.855Z,83.23
2018-09-29T07:17:58.838Z,87.02
2018-09-29T07:18:57.372Z,87.59
2018-09-29T07:19:57.536Z,88.73
2018-09-29T07:20:57.688Z,90.95
2018-09-29T07:21:57.905Z,91.85
2018-09-29T07:22:58.013Z,91.24
2018-09-29T07:23:58.178Z,92.66
2018-09-29T07:24:58.336Z,95.88
2018-09-29T07:25:58.495Z,99.99
2018-09-29T07:28:41.059Z,99.99
2018-09-29T07:29:41.218Z,99.99
2018-09-29T07:30:41.384Z,99.99
2018-09-29T07:31:41.547Z,99.99
2018-09-29T07:32:48.932Z,99.99
2018-09-29T07:33:41.838Z,99.99
2018-09-29T07:34:42.813Z,99.99
2018-09-29T07:35:42.104Z,99.99
2018-09-29T07:36:49.726Z,99.99
2018-09-29T07:37:42.380Z,99.99
2018-09-29T07:38:42.556Z,99.99
2018-09-29T07:39:42.715Z,99.99
2018-09-29T07:40:42.871Z,99.99
2018-09-29T07:41:43.846Z,99.99
2018-09-29T07:42:43.136Z,99.99
2018-09-29T07:43:43.302Z,99.69
2018-09-29T07:44:43.465Z,99.99
2018-09-29T07:45:43.631Z,99.99
2018-09-29T07:46:43.859Z,99.99
2018-09-29T07:47:43.905Z,99.99
2018-09-29T07:48:44.072Z,99.84
2018-09-29T07:49:44.305Z,97.08
2018-09-29T07:50:44.402Z,95.65
2018-09-29T07:53:16.964Z,94.37
2018-09-29T07:54:17.130Z,93.60
2018-09-29T07:55:17.296Z,91.60
2018-09-29T07:56:17.521Z,91.88
2018-09-29T07:57:17.636Z,94.22
2018-09-29T07:58:17.821Z,94.89
2018-09-29T07:59:17.988Z,96.12
2018-09-29T08:00:18.139Z,98.03
2018-09-29T08:01:18.350Z,97.27
2018-09-29T08:02:18.462Z,98.55
2018-09-29T08:03:26.287Z,99.99
2018-09-29T08:04:18.830Z,99.99
2018-09-29T08:05:18.995Z,99.99
2018-09-29T08:06:19.734Z,99.99
2018-09-29T08:07:19.377Z,99.99
2018-09-29T08:08:22.637Z,99.99
2018-09-29T08:09:19.716Z,99.99
2018-09-29T08:10:20.712Z,99.99
2018-09-29T08:11:20.004Z,99.99
2018-09-29T08:12:20.251Z,99.99
2018-09-29T08:13:21.135Z,99.99
2018-09-29T08:15:53.617Z,99.99
2018-09-29T08:16:53.768Z,99.99
2018-09-29T08:17:53.955Z,99.99
2018-09-29T08:18:54.629Z,99.99
2018-09-29T08:19:54.299Z,99.99
2018-09-29T08:20:54.459Z,99.99
2018-09-29T08:21:54.620Z,99.99
2018-09-29T08:22:54.833Z,99.99
2018-09-29T08:24:02.891Z,99.99
2018-09-29T08:24:55.064Z,99.99
2018-09-29T08:25:55.227Z,99.99
2018-09-29T08:26:55.409Z,99.99
2018-09-29T08:27:55.584Z,99.99
2018-09-29T08:28:55.716Z,99.99
2018-09-29T08:29:55.873Z,99.99
2018-09-29T08:30:56.016Z,99.99
2018-09-29T08:31:56.179Z,99.99
2018-09-29T08:32:56.346Z,99.99
2018-09-29T08:33:56.505Z,99.99
2018-09-29T08:35:04.316Z,99.99
2018-09-29T08:35:56.870Z,99.99
2018-09-29T08:36:57.038Z,99.99
2018-09-29T08:37:57.240Z,99.99
2018-09-29T08:38:57.403Z,99.99
2018-09-29T08:39:57.575Z,99.99
2018-09-29T08:40:57.751Z,99.99
2018-09-29T08:41:57.897Z,99.99
2018-09-29T08:42:58.059Z,99.99
2018-09-29T08:43:58.236Z,99.99
2018-09-29T08:44:58.404Z,99.99
2018-09-29T08:46:06.553Z,99.99
2018-09-29T08:46:58.679Z,99.99
2018-09-29T08:47:58.844Z,99.95
2018-09-29T08:48:59.005Z,99.99
2018-09-29T08:49:59.182Z,99.99
2018-09-29T08:50:59.366Z,99.99
2018-09-29T08:51:59.530Z,99.99
2018-09-29T08:52:59.695Z,99.99
2018-09-29T08:53:59.853Z,99.99
2018-09-29T08:55:00.017Z,99.99
2018-09-29T08:56:00.180Z,99.99
2018-09-29T08:57:00.345Z,99.99
2018-09-29T08:58:00.508Z,99.99
2018-09-29T08:59:00.678Z,99.99
2018-09-29T09:00:00.837Z,99.99
2018-09-29T09:01:01.002Z,99.99
2018-09-29T09:03:34.570Z,97.75
2018-09-29T09:04:34.741Z,96.51
2018-09-29T09:05:34.909Z,96.32
2018-09-29T09:06:35.070Z,95.32
2018-09-29T09:07:35.237Z,93.12
2018-09-29T09:08:38.297Z,91.30
2018-09-29T09:09:35.584Z,90.83
2018-09-29T09:10:35.755Z,90.11
2018-09-29T09:11:35.914Z,91.55
2018-09-29T09:12:36.085Z,91.93
2018-09-29T09:13:36.235Z,93.65
2018-09-29T09:14:36.398Z,94.93
2018-09-29T09:15:36.562Z,93.70
2018-09-29T09:16:36.723Z,94.07
2018-09-29T09:17:36.872Z,94.31
2018-09-29T09:20:19.445Z,89.73
2018-09-29T09:21:19.605Z,88.59
2018-09-29T09:22:19.779Z,88.30
2018-09-29T09:23:19.965Z,84.58
2018-09-29T09:24:20.168Z,86.10
2018-09-29T09:25:20.278Z,85.58
2018-09-29T09:26:20.438Z,85.77
2018-09-29T09:27:20.602Z,80.80
2018-09-29T09:28:20.766Z,79.56
2018-09-29T09:29:20.985Z,80.90
2018-09-29T09:30:21.191Z,78.83
2018-09-29T09:31:21.307Z,75.59
2018-09-29T09:32:21.476Z,75.39
2018-09-29T09:33:21.642Z,73.48
2018-09-29T09:34:21.810Z,75.07
2018-09-29T09:38:52.403Z,73.35
2018-09-29T09:39:52.578Z,73.35
2018-09-29T09:40:52.741Z,73.35
2018-09-29T09:41:52.921Z,74.11
2018-09-29T09:42:53.069Z,75.26
2018-09-29T09:43:53.235Z,73.92
2018-09-29T09:44:53.397Z,75.01
2018-09-29T09:45:53.560Z,76.60
2018-09-29T09:46:53.751Z,73.83
2018-09-29T09:47:53.917Z,73.73
2018-09-29T09:48:54.711Z,73.44
2018-09-29T09:49:54.246Z,74.30
2018-09-29T09:50:54.412Z,72.30
2018-09-29T09:51:54.576Z,74.21
2018-09-29T09:52:54.743Z,74.15
2018-09-29T09:55:37.009Z,69.37
2018-09-29T09:56:37.172Z,66.89
2018-09-29T09:57:37.337Z,67.94
2018-09-29T09:58:37.501Z,71.51
2018-09-29T09:59:37.665Z,69.50
2018-09-29T10:00:37.831Z,66.35
2018-09-29T10:01:38.236Z,66.83
2018-09-29T10:02:38.182Z,65.74
2018-09-29T10:03:38.341Z,66.99
2018-09-29T10:04:38.516Z,64.88
2018-09-29T10:07:21.076Z,64.91
2018-09-29T10:08:21.242Z,64.82
2018-09-29T10:09:21.412Z,65.20
2018-09-29T10:10:21.682Z,65.01
2018-09-29T10:11:21.702Z,65.20
2018-09-29T10:12:21.862Z,64.53
2018-09-29T10:13:22.026Z,64.34
2018-09-29T10:14:22.204Z,64.62
2018-09-29T10:15:22.380Z,64.91
2018-09-29T10:16:22.584Z,65.01
2018-09-29T10:19:05.117Z,65.11
2018-09-29T10:20:05.295Z,65.20
2018-09-29T10:21:13.382Z,63.76
2018-09-29T10:22:05.650Z,62.14
2018-09-29T10:23:05.848Z,62.33
2018-09-29T10:24:06.016Z,61.69
2018-09-29T10:25:13.593Z,62.17
2018-09-29T10:26:06.256Z,61.51
2018-09-29T10:27:06.416Z,60.26
2018-09-29T10:28:06.583Z,60.35
2018-09-29T10:29:06.778Z,62.33
2018-09-29T10:30:06.912Z,62.62
2018-09-29T10:31:07.085Z,63.00
2018-09-29T10:32:07.245Z,64.43
2018-09-29T10:33:07.527Z,63.57
2018-09-29T10:34:07.560Z,61.47
2018-09-29T10:35:08.337Z,61.47
2018-09-29T10:36:07.917Z,63.00
2018-09-29T10:37:08.064Z,63.67
2018-09-29T10:38:08.245Z,62.37
2018-09-29T10:39:08.419Z,61.41
2018-09-29T10:41:50.987Z,61.22
2018-09-29T10:42:51.240Z,59.88
2018-09-29T10:43:51.281Z,59.20
2018-09-29T10:44:51.426Z,59.30
2018-09-29T10:45:51.609Z,59.97
2018-09-29T10:46:51.796Z,59.97
2018-09-29T10:47:51.960Z,59.18
2018-09-29T10:48:52.130Z,60.52
2018-09-29T10:49:52.303Z,61.47
2018-09-29T10:50:52.452Z,61.19
2018-09-29T10:51:52.618Z,60.90
2018-09-29T10:52:52.834Z,61.38
2018-09-29T10:53:52.946Z,61.09
2018-09-29T10:54:53.146Z,61.28
2018-09-29T10:55:53.315Z,61.09
2018-09-29T10:58:35.879Z,59.37
2018-09-29T10:59:36.055Z,59.66
2018-09-29T11:00:37.113Z,58.89
2018-09-29T11:01:36.400Z,59.18
2018-09-29T11:02:36.633Z,59.08
2018-09-29T11:03:36.735Z,58.12
2018-09-29T11:04:36.892Z,57.65
2018-09-29T11:05:37.056Z,58.32
2018-09-29T11:06:37.227Z,59.08
2018-09-29T11:07:46.149Z,58.41
2018-09-29T11:08:37.600Z,57.75
2018-09-29T11:09:37.778Z,57.17
2018-09-29T11:10:37.943Z,56.60
2018-09-29T11:11:38.094Z,56.50
2018-09-29T11:12:38.283Z,56.02
2018-09-29T11:13:38.471Z,56.05
2018-09-29T11:14:46.582Z,56.21
2018-09-29T11:15:38.726Z,54.97
2018-09-29T11:16:39.920Z,54.68
2018-09-29T11:17:40.643Z,53.82
2018-09-29T11:18:41.159Z,53.73
2018-09-29T11:19:39.321Z,53.82
2018-09-29T11:20:39.494Z,53.25
2018-09-29T11:21:39.631Z,52.87
2018-09-29T11:22:39.793Z,53.44
2018-09-29T11:23:39.966Z,54.97
2018-09-29T11:24:40.759Z,54.02
2018-09-29T11:27:13.444Z,51.84
2018-09-29T11:28:13.698Z,51.84
2018-09-29T11:29:15.454Z,52.42
2018-09-29T11:30:14.006Z,54.90
2018-09-29T11:31:14.161Z,53.94
2018-09-29T11:32:22.022Z,54.52
2018-09-29T11:33:14.432Z,52.51
2018-09-29T11:34:14.590Z,52.03
2018-09-29T11:35:14.763Z,51.65
2018-09-29T11:36:14.927Z,50.98
2018-09-29T11:37:15.174Z,51.56
2018-09-29T11:38:15.320Z,50.89
2018-09-29T11:39:15.491Z,50.60
2018-09-29T11:40:15.636Z,50.41
2018-09-29T11:41:22.965Z,50.70
2018-09-29T11:42:16.006Z,53.18
2018-09-29T11:43:16.236Z,52.34
2018-09-29T11:44:17.058Z,50.52
2018-09-29T11:45:16.483Z,49.09
2018-09-29T11:46:16.647Z,48.68
2018-09-29T11:47:16.817Z,48.33
2018-09-29T11:48:16.978Z,48.39
2018-09-29T11:49:17.143Z,47.92
2018-09-29T11:50:17.308Z,48.11
2018-09-29T11:51:17.476Z,48.78
2018-09-29T11:52:17.637Z,49.35
2018-09-29T11:53:17.803Z,49.35
2018-09-29T11:54:17.962Z,49.26
2018-09-29T11:55:18.123Z,49.93
2018-09-29T11:58:00.736Z,49.26
2018-09-29T11:59:00.815Z,48.59
2018-09-29T12:00:00.954Z,49.00
2018-09-29T12:01:01.165Z,49.19
2018-09-29T12:02:01.469Z,49.57
2018-09-29T12:03:02.078Z,49.38
2018-09-29T12:05:34.673Z,48.68
2018-09-29T12:06:35.691Z,48.68
2018-09-29T12:07:36.751Z,48.61
2018-09-29T12:08:35.681Z,48.61
2018-09-29T12:09:35.219Z,48.33
2018-09-29T12:10:36.190Z,47.94
2018-09-29T12:11:35.615Z,47.37
2018-09-29T12:12:35.778Z,46.98
2018-09-29T12:13:35.931Z,47.56
2018-09-29T12:14:36.117Z,49.09
2018-09-29T12:15:36.257Z,49.76
2018-09-29T12:16:36.419Z,49.29
2018-09-29T12:17:36.639Z,48.13
2018-09-29T12:18:36.750Z,47.66
2018-09-29T12:19:36.916Z,45.07
2018-09-29T12:22:09.515Z,44.69
2018-09-29T12:23:09.681Z,46.03
2018-09-29T12:24:09.868Z,45.26
2018-09-29T12:25:10.002Z,45.17
2018-09-29T12:26:10.197Z,45.09
2018-09-29T12:27:10.420Z,44.33
2018-09-29T12:28:10.540Z,43.76
2018-09-29T12:29:10.740Z,46.53
2018-09-29T12:30:10.939Z,45.00
2018-09-29T12:31:11.048Z,43.66
2018-09-29T12:32:11.215Z,43.44
2018-09-29T12:33:11.380Z,43.08
2018-09-29T12:34:12.272Z,43.16
2018-09-29T12:35:11.763Z,43.54
2018-09-29T12:36:11.932Z,43.54
2018-09-29T12:38:55.715Z,44.59
2018-09-29T12:39:54.639Z,46.03
2018-09-29T12:40:54.819Z,45.74
2018-09-29T12:41:54.957Z,45.26
2018-09-29T12:42:55.131Z,44.90
2018-09-29T12:43:55.312Z,46.91
2018-09-29T12:44:55.536Z,46.05
2018-09-29T12:45:55.616Z,45.38
2018-09-29T12:46:55.811Z,45.29
2018-09-29T12:47:55.982Z,44.90
2018-09-29T12:48:56.145Z,44.71
2018-09-29T12:49:56.335Z,44.62
2018-09-29T12:50:56.486Z,44.81
2018-09-29T12:51:56.785Z,45.00
2018-09-29T12:52:56.838Z,45.00
2018-09-29T12:55:39.430Z,46.15
2018-09-29T12:56:39.774Z,47.58
2018-09-29T12:57:40.640Z,47.30
2018-09-29T12:58:40.153Z,47.20
2018-09-29T12:59:40.139Z,47.97
2018-09-29T13:00:40.300Z,47.78
2018-09-29T13:01:41.147Z,47.49
2018-09-29T13:02:40.672Z,47.68
2018-09-29T13:03:40.843Z,47.49
2018-09-29T13:04:40.991Z,47.97
2018-09-29T13:07:31.327Z,47.01
2018-09-29T13:08:23.363Z,47.30
2018-09-29T13:09:24.306Z,47.97
2018-09-29T13:10:23.755Z,48.25
2018-09-29T13:11:23.832Z,47.39
2018-09-29T13:12:23.996Z,46.91
2018-09-29T13:13:24.167Z,46.82
2018-09-29T13:14:24.342Z,47.89
2018-09-29T13:15:25.306Z,48.28
2018-09-29T13:16:24.588Z,47.99
2018-09-29T13:20:39.122Z,46.25
2018-09-29T13:21:39.296Z,46.46
2018-09-29T13:22:39.481Z,46.75
2018-09-29T13:23:39.652Z,46.65
2018-09-29T13:24:39.819Z,46.26
2018-09-29T13:25:39.982Z,45.98
2018-09-29T13:26:40.148Z,46.75
2018-09-29T13:27:48.234Z,46.08
2018-09-29T13:28:40.465Z,45.98
2018-09-29T13:29:40.680Z,46.17
2018-09-29T13:30:40.808Z,46.08
2018-09-29T13:31:48.992Z,46.26
2018-09-29T13:32:41.133Z,46.55
2018-09-29T13:33:41.297Z,46.26
2018-09-29T13:34:41.494Z,46.17
2018-09-29T13:35:41.628Z,46.36
2018-09-29T13:36:41.803Z,46.26
2018-09-29T13:37:41.970Z,46.36
2018-09-29T13:38:42.146Z,46.46
2018-09-29T13:39:42.310Z,46.65
2018-09-29T13:40:43.484Z,47.51
2018-09-29T13:41:42.654Z,46.75
2018-09-29T13:42:42.823Z,46.26
2018-09-29T13:43:43.180Z,46.17
2018-09-29T13:44:43.147Z,46.15
2018-09-29T13:45:43.328Z,45.98
2018-09-29T13:49:26.768Z,46.91
2018-09-29T13:50:34.107Z,47.68
2018-09-29T13:51:27.142Z,46.34
2018-09-29T13:52:27.361Z,45.86
2018-09-29T13:53:34.994Z,45.96
2018-09-29T13:54:27.650Z,46.51
2018-09-29T13:55:27.811Z,46.61
2018-09-29T13:56:27.979Z,46.98
2018-09-29T13:57:28.144Z,47.01
2018-09-29T13:58:28.349Z,47.49
2018-09-29T13:59:28.524Z,47.49
2018-09-29T14:00:28.654Z,47.68
2018-09-29T14:01:28.826Z,46.72
2018-09-29T14:02:29.014Z,46.82
2018-09-29T14:03:30.185Z,46.82
2018-09-29T14:04:29.363Z,45.96
2018-09-29T14:05:29.532Z,45.86
2018-09-29T14:06:29.849Z,45.21
2018-09-29T14:07:30.053Z,45.79
2018-09-29T14:10:02.221Z,45.12
2018-09-29T14:11:02.402Z,44.93
2018-09-29T14:12:02.556Z,45.31
2018-09-29T14:13:02.724Z,45.40
2018-09-29T14:14:04.718Z,44.26
2018-09-29T14:15:03.006Z,43.97
2018-09-29T14:16:03.179Z,44.93
2018-09-29T14:17:03.336Z,45.40
2018-09-29T14:18:05.227Z,46.17
2018-09-29T14:19:03.762Z,45.86
2018-09-29T14:21:35.905Z,46.15
2018-09-29T14:22:36.069Z,44.62
2018-09-29T14:23:36.225Z,44.62
2018-09-29T14:24:36.411Z,45.86
2018-09-29T14:25:36.557Z,46.05
2018-09-29T14:26:36.726Z,46.15
2018-09-29T14:27:36.886Z,45.86
2018-09-29T14:28:37.050Z,45.38
2018-09-29T14:29:37.222Z,44.71
2018-09-29T14:30:37.369Z,45.09
2018-09-29T14:31:37.555Z,45.19
2018-09-29T14:32:37.709Z,44.52
2018-09-29T14:33:37.910Z,44.71
2018-09-29T14:34:38.085Z,44.71